Time;durP1;ratioP1;P1;durP2;ratioP2;P2;SDS_P1;SDS_P2;PMS_P1;PMS_P2;Temp;Humidity;BMP_temperature;BMP_pressure;BME280_temperature;BME280_humidity;BME280_pressure;Samples;Min_cycle;Max_cycle;Signal;HPM_P1;HPM_P2
2021/07/26 00:02:14;;;;;;;8.00;3.93;;;17.70;1.00;;;;;;5013654;28;20668;-62
2021/07/26 00:04:40;;;;;;;9.67;3.83;;;17.60;1.00;;;;;;5013885;28;20207;-63
2021/07/26 00:07:08;;;;;;;7.17;4.27;;;17.60;99.90;;;;;;5013902;28;20661;-63
2021/07/26 00:09:35;;;;;;;9.67;4.40;;;17.60;1.00;;;;;;5013692;28;20284;-63
2021/07/26 00:12:02;;;;;;;5.83;4.23;;;17.60;99.90;;;;;;5013538;28;20203;-63
2021/07/26 00:14:29;;;;;;;5.63;4.30;;;17.60;1.00;;;;;;5013406;28;20676;-63
2021/07/26 00:16:55;;;;;;;6.47;3.97;;;17.60;99.90;;;;;;5013388;28;20660;-63
2021/07/26 00:19:22;;;;;;;6.50;4.20;;;17.60;99.90;;;;;;5013739;28;20223;-63
2021/07/26 00:21:49;;;;;;;7.37;4.30;;;17.60;99.90;;;;;;5013541;28;20285;-63
2021/07/26 00:24:17;;;;;;;5.40;4.43;;;17.50;99.90;;;;;;5013397;28;20207;-63
2021/07/26 00:26:44;;;;;;;5.87;4.23;;;17.40;99.90;;;;;;5013388;28;20680;-62
2021/07/26 00:29:11;;;;;;;6.53;3.90;;;17.40;1.00;;;;;;5013282;28;20281;-62
2021/07/26 00:31:37;;;;;;;5.70;4.30;;;17.40;1.00;;;;;;5013591;28;20281;-62
2021/07/26 00:34:19;;;;;;;5.93;3.83;;;17.30;1.00;;;;;;5013140;28;20207;-62
2021/07/26 00:36:47;;;;;;;5.43;3.70;;;17.30;1.00;;;;;;5013356;28;20226;-63
2021/07/26 00:39:17;;;;;;;5.60;4.13;;;17.30;1.00;;;;;;5013079;28;20289;-63
2021/07/26 00:41:47;;;;;;;6.40;3.80;;;17.20;99.90;;;;;;5013012;28;20203;-63
2021/07/26 00:44:14;;;;;;;5.70;3.60;;;17.20;1.00;;;;;;5013363;28;20210;-63
2021/07/26 00:46:41;;;;;;;5.17;4.00;;;17.10;1.00;;;;;;5013190;28;20263;-62
2021/07/26 00:49:10;;;;;;;5.80;3.93;;;17.10;1.00;;;;;;5012945;28;20247;-62
2021/07/26 00:51:39;;;;;;;7.40;4.17;;;17.10;1.00;;;;;;5013002;28;20261;-63
2021/07/26 00:54:07;;;;;;;7.57;4.13;;;17.10;1.00;;;;;;5012637;28;20242;-62
2021/07/26 00:56:33;;;;;;;7.03;3.30;;;17.10;99.90;;;;;;5012886;28;20223;-63
2021/07/26 00:59:02;;;;;;;6.80;3.60;;;17.10;1.00;;;;;;5012818;28;20241;-62
2021/07/26 01:01:29;;;;;;;7.30;3.20;;;17.20;99.90;;;;;;5013097;28;20285;-63
2021/07/26 01:03:56;;;;;;;3.97;3.57;;;17.20;1.00;;;;;;5012749;28;20261;-62
2021/07/26 01:06:22;;;;;;;5.40;3.10;;;17.20;99.90;;;;;;5012746;28;20253;-63
2021/07/26 01:08:49;;;;;;;4.03;3.30;;;17.20;99.90;;;;;;5012580;28;20305;-62
2021/07/26 01:11:17;;;;;;;5.40;3.40;;;17.20;1.00;;;;;;5012820;28;20211;-63
2021/07/26 01:13:43;;;;;;;4.67;3.63;;;17.20;1.00;;;;;;5012610;28;20246;-62
2021/07/26 01:16:11;;;;;;;5.53;3.27;;;17.20;1.00;;;;;;5012593;28;20227;-63
2021/07/26 01:18:38;;;;;;;4.73;3.30;;;17.20;22.80;;;;;;5012568;28;20222;-63
2021/07/26 01:21:07;;;;;;;7.50;3.40;;;17.20;1.00;;;;;;5012392;28;20268;-63
2021/07/26 01:23:37;;;;;;;5.80;3.93;;;17.20;1.00;;;;;;5012221;28;20210;-63
2021/07/26 01:26:06;;;;;;;5.63;3.67;;;17.20;1.00;;;;;;5012500;28;20206;-63
2021/07/26 01:28:37;;;;;;;5.50;3.93;;;17.20;1.00;;;;;;5012358;28;20273;-62
2021/07/26 01:31:05;;;;;;;4.87;3.47;;;17.20;99.90;;;;;;5012471;28;20207;-62
2021/07/26 01:33:32;;;;;;;5.27;3.90;;;17.20;99.90;;;;;;5012355;28;20281;-63
2021/07/26 01:36:00;;;;;;;6.57;3.93;;;17.20;99.90;;;;;;5011862;28;20231;-62
2021/07/26 01:38:28;;;;;;;5.37;3.37;;;17.20;99.90;;;;;;5012381;28;20581;-62
2021/07/26 01:40:57;;;;;;;5.30;3.63;;;17.20;99.90;;;;;;5012376;28;20282;-63
2021/07/26 01:43:25;;;;;;;4.67;3.83;;;17.20;99.90;;;;;;5012154;28;20265;-62
2021/07/26 01:46:07;;;;;;;5.27;3.40;;;17.20;99.90;;;;;;5012133;28;20702;-61
2021/07/26 01:48:43;;;;;;;7.40;3.63;;;17.20;99.90;;;;;;5011842;28;20238;-62
2021/07/26 01:51:16;;;;;;;7.37;3.30;;;17.10;99.90;;;;;;5012346;28;20211;-62
2021/07/26 01:53:45;;;;;;;3.83;3.10;;;17.10;99.90;;;;;;5011886;28;20656;-62
2021/07/26 01:56:12;;;;;;;5.37;3.30;;;17.10;99.90;;;;;;5012174;28;20227;-62
2021/07/26 01:58:39;;;;;;;3.90;3.00;;;17.10;99.90;;;;;;5011987;28;20277;-62
2021/07/26 02:01:05;;;;;;;5.13;3.07;;;17.20;99.90;;;;;;5012210;28;20656;-62
2021/07/26 02:03:32;;;;;;;4.53;3.27;;;17.20;99.90;;;;;;5011863;28;20233;-62
2021/07/26 02:05:59;;;;;;;5.57;3.13;;;17.20;99.90;;;;;;5012221;28;20253;-62
2021/07/26 02:08:25;;;;;;;6.60;3.50;;;17.20;99.90;;;;;;5011949;28;20230;-62
2021/07/26 02:10:53;;;;;;;4.87;3.20;;;17.10;1.00;;;;;;5012148;28;20207;-63
2021/07/26 02:13:20;;;;;;;5.40;3.73;;;17.20;1.00;;;;;;5011758;28;20265;-62
2021/07/26 02:15:47;;;;;;;5.17;3.40;;;17.20;1.00;;;;;;5011691;28;20231;-62
2021/07/26 02:18:13;;;;;;;4.90;3.33;;;17.10;1.00;;;;;;5012396;28;20273;-62
2021/07/26 02:20:40;;;;;;;5.40;3.03;;;17.10;1.00;;;;;;5015844;28;20257;-63
2021/07/26 02:23:06;;;;;;;5.10;3.10;;;17.10;1.00;;;;;;5016092;28;20628;-63
2021/07/26 02:25:33;;;;;;;5.33;3.13;;;17.10;1.00;;;;;;5015398;28;20200;-62
2021/07/26 02:28:02;;;;;;;4.23;3.10;;;17.10;1.00;;;;;;5015487;28;20231;-62
2021/07/26 02:30:28;;;;;;;7.00;3.30;;;17.10;1.00;;;;;;5015744;28;20209;-62
2021/07/26 02:32:55;;;;;;;4.00;3.10;;;17.10;1.00;;;;;;5015469;28;20820;-63
2021/07/26 02:35:21;;;;;;;5.33;3.30;;;17.10;1.00;;;;;;5015213;28;20257;-63
2021/07/26 02:37:48;;;;;;;4.90;3.17;;;17.10;1.00;;;;;;5015452;28;20210;-63
2021/07/26 02:40:16;;;;;;;4.17;3.20;;;17.10;1.00;;;;;;5015512;28;20211;-63
2021/07/26 02:42:42;;;;;;;4.73;3.17;;;17.10;1.00;;;;;;5015185;28;20207;-63
2021/07/26 02:45:11;;;;;;;3.70;3.10;;;17.10;1.00;;;;;;5015306;28;20210;-63
2021/07/26 02:47:38;;;;;;;3.50;3.10;;;17.10;1.00;;;;;;5015393;28;20203;-62
2021/07/26 02:50:06;;;;;;;5.10;3.40;;;17.10;1.00;;;;;;5015286;28;20206;-62
2021/07/26 02:52:33;;;;;;;4.57;3.20;;;17.00;1.00;;;;;;5015208;28;20265;-63
2021/07/26 02:55:00;;;;;;;4.70;2.73;;;17.10;1.00;;;;;;5014995;28;20207;-63
2021/07/26 02:57:27;;;;;;;6.90;3.33;;;17.10;1.00;;;;;;5015070;28;20227;-63
2021/07/26 02:59:53;;;;;;;5.20;3.17;;;17.10;1.00;;;;;;5015188;28;20231;-63
2021/07/26 03:02:21;;;;;;;5.50;3.33;;;17.10;1.00;;;;;;5014266;28;20215;-63
2021/07/26 03:04:48;;;;;;;4.17;3.27;;;17.10;1.00;;;;;;5014812;28;20234;-63
2021/07/26 03:07:14;;;;;;;3.77;3.23;;;17.10;1.00;;;;;;5014853;28;20207;-63
2021/07/26 03:09:41;;;;;;;5.03;3.10;;;17.10;1.00;;;;;;5014588;28;20227;-63
2021/07/26 03:12:08;;;;;;;4.63;3.07;;;17.10;1.00;;;;;;5014932;28;20261;-63
2021/07/26 03:14:35;;;;;;;3.93;3.30;;;17.10;1.00;;;;;;5014778;28;20269;-63
2021/07/26 03:17:03;;;;;;;4.67;3.03;;;17.00;1.00;;;;;;5014745;28;20293;-63
2021/07/26 03:19:31;;;;;;;5.27;2.90;;;17.00;1.00;;;;;;5015853;28;20597;-63
2021/07/26 03:22:51;;;;;;;6.17;3.60;;;17.00;1.00;;;;;;5014885;28;20210;-62
2021/07/26 03:25:18;;;;;;;3.93;3.00;;;16.80;99.90;;;;;;5007872;28;20207;-63
2021/07/26 03:27:45;;;;;;;4.87;3.33;;;16.80;99.90;;;;;;5015551;28;20230;-63
2021/07/26 03:30:13;;;;;;;4.23;3.60;;;16.70;1.00;;;;;;5015382;28;20207;-63
2021/07/26 03:32:39;;;;;;;5.60;3.77;;;16.70;1.00;;;;;;5015080;28;20215;-63
2021/07/26 03:35:09;;;;;;;3.90;3.20;;;16.70;55.30;;;;;;5014401;28;20261;-63
2021/07/26 03:37:35;;;;;;;5.27;3.53;;;16.70;99.90;;;;;;5014575;28;20227;-63
2021/07/26 03:40:02;;;;;;;4.23;3.20;;;16.70;99.90;;;;;;5014105;28;20731;-63
2021/07/26 03:42:28;;;;;;;5.23;3.20;;;16.70;99.90;;;;;;5014693;28;20622;-63
2021/07/26 03:44:56;;;;;;;6.10;4.03;;;16.70;99.90;;;;;;5014130;28;20206;-62
2021/07/26 03:47:24;;;;;;;5.20;3.33;;;16.70;1.00;;;;;;5014121;28;20211;-62
2021/07/26 03:49:51;;;;;;;6.70;3.40;;;16.70;1.00;;;;;;5013919;28;20361;-63
2021/07/26 03:52:19;;;;;;;7.00;3.73;;;16.60;99.90;;;;;;5014405;28;20253;-63
2021/07/26 03:54:45;;;;;;;4.90;3.63;;;16.60;99.90;;;;;;5014078;28;20254;-62
2021/07/26 03:57:12;;;;;;;4.83;3.30;;;16.60;99.90;;;;;;5014277;28;20226;-65
2021/07/26 03:59:39;;;;;;;4.50;3.60;;;16.60;99.90;;;;;;5013653;28;20235;-63
2021/07/26 04:02:05;;;;;;;6.60;4.03;;;16.50;1.00;;;;;;5014014;28;20265;-63
2021/07/26 04:04:32;;;;;;;7.70;4.30;;;16.50;1.00;;;;;;5013363;28;20626;-63
2021/07/26 04:07:01;;;;;;;5.83;4.03;;;16.40;99.90;;;;;;5013772;28;20210;-63
2021/07/26 04:09:33;;;;;;;7.03;3.77;;;16.30;1.00;;;;;;5011546;28;20237;-62
2021/07/26 04:12:02;;;;;;;5.50;3.80;;;16.30;99.90;;;;;;5013508;28;20202;-63
2021/07/26 04:14:31;;;;;;;5.17;3.97;;;16.30;1.00;;;;;;5017075;28;20209;-63
2021/07/26 04:16:58;;;;;;;8.13;3.93;;;16.30;99.90;;;;;;5033432;28;20230;-63
2021/07/26 04:19:24;;;;;;;9.43;3.93;;;16.40;99.90;;;;;;5020511;28;20277;-63
2021/07/26 04:21:55;;;;;;;7.40;4.00;;;16.40;84.80;;;;;;5013370;28;20260;-63
2021/07/26 04:24:22;;;;;;;7.27;4.47;;;16.40;99.90;;;;;;5013325;28;20214;-63
2021/07/26 04:26:50;;;;;;;7.63;4.30;;;16.50;99.90;;;;;;5014682;28;20276;-64
2021/07/26 04:29:16;;;;;;;6.60;4.03;;;16.50;99.90;;;;;;5009889;28;20237;-64
2021/07/26 04:31:43;;;;;;;4.93;3.93;;;16.50;1.00;;;;;;5013119;28;20626;-64
2021/07/26 04:34:11;;;;;;;8.03;4.43;;;16.50;98.80;;;;;;5013406;28;20210;-64
2021/07/26 04:36:37;;;;;;;5.03;4.00;;;16.60;99.90;;;;;;5013054;28;20219;-64
2021/07/26 04:39:04;;;;;;;5.53;3.70;;;16.70;99.90;;;;;;5020250;28;20280;-64
2021/07/26 04:41:32;;;;;;;4.67;4.13;;;16.70;1.00;;;;;;5032418;28;20268;-64
2021/07/26 04:44:01;;;;;;;4.97;3.93;;;16.80;1.00;;;;;;5032804;28;20206;-64
2021/07/26 04:46:27;;;;;;;5.10;3.73;;;16.90;99.90;;;;;;5032656;28;20206;-65
2021/07/26 04:48:54;;;;;;;6.93;3.97;;;17.00;99.90;;;;;;5032607;28;20268;-65
2021/07/26 04:51:20;;;;;;;7.37;3.93;;;17.10;1.00;;;;;;5032544;28;20275;-65
2021/07/26 04:53:47;;;;;;;8.33;4.30;;;17.10;99.90;;;;;;5032467;28;20261;-64
2021/07/26 04:56:14;;;;;;;6.03;3.90;;;17.20;1.00;;;;;;5032712;28;20629;-64
2021/07/26 04:58:40;;;;;;;4.20;3.63;;;17.30;1.00;;;;;;5032167;28;20230;-64
2021/07/26 05:01:08;;;;;;;6.93;4.27;;;17.30;99.90;;;;;;5015272;28;20211;-64
2021/07/26 05:03:35;;;;;;;5.83;3.33;;;17.40;1.00;;;;;;5012530;28;20850;-64
2021/07/26 05:06:01;;;;;;;3.63;3.10;;;17.50;1.00;;;;;;5012742;28;20207;-64
2021/07/26 05:08:28;;;;;;;4.57;3.80;;;17.60;99.90;;;;;;5025275;28;20234;-65
2021/07/26 05:10:55;;;;;;;5.07;3.10;;;17.60;99.90;;;;;;5032526;28;20665;-64
2021/07/26 05:13:22;;;;;;;7.17;3.60;;;17.70;10.30;;;;;;5017334;28;20214;-66
2021/07/26 05:15:48;;;;;;;6.37;3.13;;;17.80;1.00;;;;;;5012499;28;20264;-64
2021/07/26 05:18:16;;;;;;;4.80;3.03;;;17.90;99.90;;;;;;5012596;28;20498;-65
2021/07/26 05:20:43;;;;;;;5.23;3.30;;;17.90;99.90;;;;;;5028933;28;20252;-64
2021/07/26 05:23:10;;;;;;;5.77;3.30;;;18.10;99.90;;;;;;5032261;28;20206;-64
2021/07/26 05:25:37;;;;;;;5.10;3.43;;;18.10;1.00;;;;;;5028391;28;20206;-63
2021/07/26 05:28:04;;;;;;;4.13;3.50;;;18.20;99.90;;;;;;5021678;28;20291;-64
2021/07/26 05:30:31;;;;;;;4.30;3.07;;;18.30;99.90;;;;;;5021204;28;20209;-63
2021/07/26 05:32:57;;;;;;;4.03;3.03;;;18.40;99.90;;;;;;5031923;28;20206;-63
2021/07/26 05:35:25;;;;;;;7.73;3.10;;;18.40;1.00;;;;;;5031339;28;20206;-63
2021/07/26 05:37:52;;;;;;;7.50;3.17;;;18.50;1.00;;;;;;5031030;28;20277;-64
2021/07/26 05:40:19;;;;;;;4.13;3.30;;;18.60;1.00;;;;;;5012542;28;20211;-63
2021/07/26 05:42:46;;;;;;;5.37;3.10;;;18.60;99.90;;;;;;5011775;28;20261;-64
2021/07/26 05:45:12;;;;;;;5.20;3.20;;;18.70;99.90;;;;;;5011902;28;20214;-64
2021/07/26 05:47:39;;;;;;;7.67;3.47;;;18.70;99.90;;;;;;5011405;28;20664;-66
2021/07/26 05:50:07;;;;;;;6.37;5.43;;;18.80;99.90;;;;;;5011967;28;20670;-64
2021/07/26 05:52:34;;;;;;;4.67;3.40;;;18.80;99.90;;;;;;5020478;28;20210;-63
2021/07/26 05:55:02;;;;;;;3.90;3.33;;;18.90;99.90;;;;;;5035351;28;20210;-63
2021/07/26 05:57:32;;;;;;;4.67;3.40;;;19.00;99.90;;;;;;5035377;28;20261;-64
2021/07/26 05:59:59;;;;;;;4.30;3.23;;;19.00;99.90;;;;;;5035360;28;20226;-62
2021/07/26 06:02:25;;;;;;;4.73;3.07;;;19.10;99.90;;;;;;5035390;28;20209;-62
2021/07/26 06:04:52;;;;;;;3.47;3.17;;;19.20;90.10;;;;;;5035037;28;20629;-63
2021/07/26 06:07:18;;;;;;;3.93;3.00;;;19.30;1.00;;;;;;5035413;28;20256;-62
2021/07/26 06:09:47;;;;;;;3.60;2.90;;;19.40;1.00;;;;;;5035471;28;20642;-64
2021/07/26 06:12:13;;;;;;;5.87;3.27;;;19.40;1.00;;;;;;5035356;28;20225;-65
2021/07/26 06:14:40;;;;;;;4.53;2.90;;;19.50;1.00;;;;;;5034482;28;20236;-65
2021/07/26 06:17:07;;;;;;;6.00;3.00;;;19.60;1.00;;;;;;5034937;28;20226;-65
2021/07/26 06:19:35;;;;;;;3.73;2.70;;;19.60;99.90;;;;;;5035193;28;20226;-66
2021/07/26 06:22:01;;;;;;;3.83;2.80;;;19.60;99.90;;;;;;5035220;28;20213;-66
2021/07/26 06:24:28;;;;;;;4.23;2.83;;;19.60;99.90;;;;;;5035090;28;20264;-66
2021/07/26 06:26:56;;;;;;;3.97;2.80;;;19.70;99.90;;;;;;5034798;28;20199;-65
2021/07/26 06:29:24;;;;;;;6.73;2.60;;;19.70;99.90;;;;;;5034942;28;20231;-66
2021/07/26 06:31:51;;;;;;;4.63;2.83;;;19.70;99.90;;;;;;5034225;28;20202;-65
2021/07/26 06:34:17;;;;;;;6.33;3.17;;;19.80;99.90;;;;;;5035054;28;20225;-65
2021/07/26 06:36:44;;;;;;;4.30;2.70;;;19.90;99.90;;;;;;5034613;28;20211;-64
2021/07/26 06:39:12;;;;;;;2.90;2.47;;;19.90;99.90;;;;;;5035063;28;20226;-65
2021/07/26 06:41:39;;;;;;;5.67;3.10;;;19.90;99.90;;;;;;5034875;28;20210;-65
2021/07/26 06:44:07;;;;;;;3.13;2.67;;;19.80;99.90;;;;;;5034021;28;20667;-65
2021/07/26 06:46:34;;;;;;;4.47;2.80;;;19.80;99.90;;;;;;5034269;28;20218;-64
2021/07/26 06:49:00;;;;;;;4.33;2.90;;;19.80;99.90;;;;;;5034437;28;20241;-65
2021/07/26 06:51:27;;;;;;;5.43;2.63;;;19.80;99.90;;;;;;5034505;28;20206;-64
2021/07/26 06:53:54;;;;;;;3.23;2.37;;;19.80;99.90;;;;;;5015045;28;20234;-64
2021/07/26 06:56:21;;;;;;;3.30;2.40;;;19.90;99.90;;;;;;5014683;28;20277;-64
2021/07/26 06:58:47;;;;;;;3.87;2.53;;;19.90;99.90;;;;;;5014274;28;20653;-65
2021/07/26 07:01:17;;;;;;;4.60;2.70;;;20.00;40.30;;;;;;5018945;28;20222;-65
2021/07/26 07:03:44;;;;;;;4.83;2.80;;;20.00;74.70;;;;;;5034181;28;20206;-64
2021/07/26 07:06:13;;;;;;;4.00;2.53;;;20.10;95.10;;;;;;5034210;28;20288;-66
2021/07/26 07:08:41;;;;;;;4.00;2.80;;;20.10;10.60;;;;;;5034327;28;20284;-65
2021/07/26 07:11:10;;;;;;;3.60;2.70;;;20.20;95.10;;;;;;5034140;28;20210;-65
2021/07/26 07:13:38;;;;;;;3.83;2.30;;;20.20;23.30;;;;;;5033328;28;20261;-65
2021/07/26 07:16:08;;;;;;;4.60;2.90;;;20.30;5.00;;;;;;5027064;28;20582;-64
2021/07/26 07:18:36;;;;;;;4.60;2.87;;;20.30;10.40;;;;;;5014118;28;20718;-65
2021/07/26 07:21:03;;;;;;;4.73;2.70;;;20.40;1.00;;;;;;5014317;28;20633;-66
2021/07/26 07:23:30;;;;;;;4.20;2.90;;;20.40;1.00;;;;;;5021700;28;20252;-65
2021/07/26 07:25:56;;;;;;;4.60;2.60;;;20.50;1.00;;;;;;5035480;28;20210;-64
2021/07/26 07:28:23;;;;;;;7.90;2.70;;;20.50;1.00;;;;;;5034727;28;20632;-63
2021/07/26 07:30:50;;;;;;;4.00;3.00;;;20.60;1.00;;;;;;5034049;28;20692;-64
2021/07/26 07:33:16;;;;;;;4.37;2.90;;;20.60;1.00;;;;;;5034771;28;20202;-64
2021/07/26 07:35:44;;;;;;;4.20;2.50;;;20.70;1.00;;;;;;5022547;28;20207;-64
2021/07/26 07:38:11;;;;;;;4.97;2.90;;;20.80;1.00;;;;;;5014683;28;20234;-65
2021/07/26 07:40:38;;;;;;;5.03;3.00;;;20.90;1.00;;;;;;5013851;28;20210;-66
2021/07/26 07:43:05;;;;;;;7.00;3.40;;;21.10;1.00;;;;;;5015638;28;20218;-66
2021/07/26 07:45:32;;;;;;;7.90;3.07;;;21.30;1.00;;;;;;5033906;28;20241;-62
2021/07/26 07:47:59;;;;;;;2.60;2.30;;;21.40;1.00;;;;;;5033254;28;20626;-64
2021/07/26 07:50:25;;;;;;;3.97;2.80;;;21.50;1.00;;;;;;5033366;28;20214;-64
2021/07/26 07:52:53;;;;;;;4.10;2.73;;;21.60;1.00;;;;;;5033371;28;20206;-66
2021/07/26 07:55:21;;;;;;;5.37;2.90;;;21.60;1.00;;;;;;5033034;28;20729;-64
2021/07/26 07:57:51;;;;;;;7.77;2.80;;;21.60;1.00;;;;;;5032919;28;20257;-64
2021/07/26 08:00:18;;;;;;;4.77;2.70;;;21.70;1.00;;;;;;5033325;28;20579;-64
2021/07/26 08:02:45;;;;;;;7.53;3.10;;;21.70;1.00;;;;;;5033130;28;20206;-66
2021/07/26 08:05:13;;;;;;;5.23;3.00;;;21.80;1.00;;;;;;5033133;28;20210;-66
2021/07/26 08:07:39;;;;;;;8.33;2.90;;;21.80;1.00;;;;;;5032793;28;20333;-63
2021/07/26 08:10:08;;;;;;;5.33;2.90;;;21.90;1.00;;;;;;5033208;28;20214;-63
2021/07/26 08:12:35;;;;;;;5.87;2.87;;;22.00;1.00;;;;;;5032831;28;20210;-66
2021/07/26 08:15:01;;;;;;;4.97;2.70;;;22.10;99.90;;;;;;5033057;28;20210;-65
2021/07/26 08:17:29;;;;;;;3.27;2.57;;;22.30;1.00;;;;;;5031929;28;20276;-64
2021/07/26 08:19:56;;;;;;;4.57;2.60;;;22.30;99.90;;;;;;5032868;28;20340;-65
2021/07/26 08:22:23;;;;;;;5.40;2.90;;;22.30;99.90;;;;;;5032979;28;20260;-67
2021/07/26 08:24:49;;;;;;;3.30;2.73;;;22.30;1.00;;;;;;5033501;28;20202;-65
2021/07/26 08:27:17;;;;;;;4.57;2.97;;;22.30;99.90;;;;;;5033037;28;20690;-65
2021/07/26 08:29:44;;;;;;;4.63;3.30;;;22.30;99.90;;;;;;5032551;28;20223;-64
2021/07/26 08:32:11;;;;;;;4.10;3.17;;;22.30;99.90;;;;;;5032734;28;20256;-65
2021/07/26 08:34:37;;;;;;;5.40;3.27;;;22.40;99.90;;;;;;5032377;28;20206;-64
2021/07/26 08:37:04;;;;;;;4.17;2.90;;;22.60;99.90;;;;;;5032534;28;20264;-66
2021/07/26 08:39:31;;;;;;;6.63;3.57;;;22.70;99.90;;;;;;5032312;28;20226;-64
2021/07/26 08:41:57;;;;;;;5.03;3.50;;;22.60;99.90;;;;;;5032535;28;20256;-64
2021/07/26 08:44:26;;;;;;;4.53;3.47;;;22.40;99.90;;;;;;5032391;28;20333;-64
2021/07/26 08:46:54;;;;;;;6.87;3.53;;;22.30;99.90;;;;;;5032252;28;20305;-65
2021/07/26 08:49:23;;;;;;;4.80;3.60;;;22.20;99.90;;;;;;5031892;28;20234;-65
2021/07/26 08:51:50;;;;;;;4.13;3.40;;;22.00;99.90;;;;;;5032506;28;20567;-65
2021/07/26 08:54:18;;;;;;;4.93;3.40;;;21.90;99.90;;;;;;5032205;28;20260;-66
2021/07/26 08:56:45;;;;;;;4.90;3.60;;;21.70;99.90;;;;;;5031867;28;20729;-66
2021/07/26 08:59:12;;;;;;;4.27;3.70;;;21.60;99.90;;;;;;5032233;28;20249;-66
2021/07/26 09:01:43;;;;;;;5.20;4.03;;;21.70;99.90;;;;;;5031867;28;20206;-65
2021/07/26 09:04:10;;;;;;;4.33;3.70;;;21.70;99.90;;;;;;5031929;28;20659;-66
2021/07/26 09:06:37;;;;;;;5.23;3.60;;;21.60;99.90;;;;;;5031633;28;20666;-65
2021/07/26 09:09:04;;;;;;;6.33;4.50;;;21.70;99.90;;;;;;5032045;28;20265;-64
2021/07/26 09:11:43;;;;;;;6.23;3.87;;;21.80;99.90;;;;;;5031870;28;20206;-65
2021/07/26 09:14:09;;;;;;;4.30;3.70;;;22.00;99.90;;;;;;5031623;28;20264;-64
2021/07/26 09:16:36;;;;;;;6.00;3.67;;;22.10;99.90;;;;;;5031451;28;20222;-66
2021/07/26 09:19:07;;;;;;;4.57;3.80;;;22.10;99.90;;;;;;5031789;28;20276;-65
2021/07/26 09:21:50;;;;;;;5.77;4.13;;;22.10;99.90;;;;;;5031992;28;20591;-65
2021/07/26 09:24:24;;;;;;;8.40;5.70;;;22.10;99.90;;;;;;5031515;28;20214;-65
2021/07/26 09:26:51;;;;;;;6.60;4.20;;;22.30;99.90;;;;;;5031214;28;20202;-65
2021/07/26 09:29:28;;;;;;;5.83;4.30;;;22.50;99.90;;;;;;5031928;28;20229;-64
2021/07/26 09:31:59;;;;;;;5.13;4.30;;;22.50;99.90;;;;;;5031889;28;20202;-68
2021/07/26 09:34:27;;;;;;;5.93;4.17;;;22.50;99.90;;;;;;5031476;28;20214;-67
2021/07/26 09:36:54;;;;;;;10.37;7.87;;;22.40;99.90;;;;;;5031320;28;20206;-67
2021/07/26 09:39:28;;;;;;;9.63;5.30;;;22.40;99.90;;;;;;5031296;28;20300;-67
2021/07/26 09:41:56;;;;;;;7.47;4.73;;;22.20;99.90;;;;;;5031908;28;20206;-68
2021/07/26 09:44:24;;;;;;;5.90;4.50;;;22.10;99.90;;;;;;5032303;28;20210;-68
2021/07/26 09:46:51;;;;;;;4.80;4.40;;;22.10;99.90;;;;;;5031504;28;20206;-69
2021/07/26 09:49:20;;;;;;;6.93;4.80;;;22.10;99.90;;;;;;5031490;28;20230;-68
2021/07/26 09:52:08;;;;;;;6.57;4.30;;;22.00;99.90;;;;;;5031160;28;20248;-69
2021/07/26 09:54:43;;;;;;;7.23;4.10;;;21.90;99.90;;;;;;5031481;28;20249;-68
2021/07/26 09:57:18;;;;;;;4.30;3.90;;;22.00;99.90;;;;;;5031392;28;20233;-68
2021/07/26 09:59:46;;;;;;;7.13;4.00;;;22.00;99.90;;;;;;5031959;28;20230;-68
2021/07/26 10:02:15;;;;;;;4.23;3.37;;;22.00;99.90;;;;;;5031701;28;20627;-68
2021/07/26 10:04:43;;;;;;;5.50;3.30;;;22.00;99.90;;;;;;5032066;28;20210;-68
2021/07/26 10:07:12;;;;;;;4.70;3.70;;;21.90;99.90;;;;;;5032730;28;20611;-68
2021/07/26 10:09:41;;;;;;;4.80;3.53;;;21.80;99.90;;;;;;5031516;28;20252;-67
2021/07/26 10:12:10;;;;;;;5.23;3.07;;;21.90;99.90;;;;;;5031330;28;20217;-69
2021/07/26 10:14:38;;;;;;;5.00;3.07;;;22.10;99.90;;;;;;5031128;28;20214;-67
2021/07/26 10:17:05;;;;;;;2.70;2.50;;;22.20;99.90;;;;;;5031036;28;20784;-66
2021/07/26 10:19:32;;;;;;;4.43;2.97;;;22.40;99.90;;;;;;5031197;28;20703;-66
2021/07/26 10:22:00;;;;;;;3.83;2.70;;;22.60;99.90;;;;;;5031465;28;20268;-67
2021/07/26 10:24:36;;;;;;;4.83;3.20;;;22.60;99.90;;;;;;5031146;28;20296;-67
2021/07/26 10:27:10;;;;;;;4.17;3.07;;;22.60;99.90;;;;;;5031036;28;20210;-67
2021/07/26 10:29:51;;;;;;;3.90;3.03;;;22.60;99.90;;;;;;5031230;28;20296;-66
2021/07/26 10:32:35;;;;;;;4.27;3.07;;;22.60;99.90;;;;;;5031130;28;20734;-67
2021/07/26 10:35:03;;;;;;;5.40;3.40;;;22.50;99.90;;;;;;5030905;28;20240;-67
2021/07/26 10:37:49;;;;;;;4.73;3.23;;;22.50;99.90;;;;;;5030614;28;20214;-67
2021/07/26 10:40:22;;;;;;;4.93;3.17;;;22.50;99.90;;;;;;5033369;28;20210;-67
2021/07/26 10:42:49;;;;;;;4.27;2.77;;;22.60;99.90;;;;;;5034630;28;20667;-67
2021/07/26 10:45:59;;;;;;;3.73;2.70;;;22.80;99.90;;;;;;5034679;28;20213;-68
2021/07/26 10:48:37;;;;;;;4.97;3.20;;;22.80;99.90;;;;;;5034658;28;20234;-68
2021/07/26 10:51:38;;;;;;;3.50;2.93;;;22.90;99.90;;;;;;5034629;28;20297;-68
2021/07/26 10:54:07;;;;;;;4.60;2.70;;;22.80;99.90;;;;;;5032016;28;20213;-67
2021/07/26 10:57:08;;;;;;;3.73;2.97;;;22.70;99.90;;;;;;5034027;28;20634;-69
2021/07/26 11:00:08;;;;;;;4.40;3.40;;;22.60;99.90;;;;;;5034575;28;20580;-67
2021/07/26 11:02:35;;;;;;;4.13;2.70;;;22.80;99.90;;;;;;5033753;28;20296;-69
2021/07/26 11:05:33;;;;;;;4.90;2.97;;;22.90;99.90;;;;;;5034376;28;20654;-68
2021/07/26 11:08:24;;;;;;;4.10;2.90;;;23.20;99.90;;;;;;5014299;28;20600;-68
2021/07/26 11:10:53;;;;;;;4.23;2.83;;;23.30;99.90;;;;;;5014385;28;20297;-68
2021/07/26 11:13:22;;;;;;;4.00;2.90;;;23.40;99.90;;;;;;5014410;28;20211;-68
2021/07/26 11:15:49;;;;;;;4.20;2.70;;;23.50;99.90;;;;;;5014272;28;20203;-69
2021/07/26 11:18:20;;;;;;;3.73;2.87;;;23.80;99.90;;;;;;5014251;28;20227;-72
2021/07/26 11:21:00;;;;;;;3.40;2.80;;;23.80;99.90;;;;;;5018620;28;20217;-71
2021/07/26 11:23:41;;;;;;;5.47;2.50;;;23.90;99.90;;;;;;5033659;28;20264;-69
2021/07/26 11:26:17;;;;;;;3.87;2.37;;;23.90;99.90;;;;;;5033916;28;20214;-69
2021/07/26 11:28:46;;;;;;;4.57;2.80;;;23.90;99.90;;;;;;5034058;28;20624;-68
2021/07/26 11:31:20;;;;;;;3.27;2.70;;;23.90;99.90;;;;;;5036414;28;20216;-69
2021/07/26 11:33:47;;;;;;;6.37;2.63;;;24.10;99.90;;;;;;5021143;28;21031;-70
2021/07/26 11:36:14;;;;;;;3.90;3.00;;;24.40;99.90;;;;;;5014590;28;20265;-70
2021/07/26 11:39:00;;;;;;;4.27;2.63;;;24.20;99.90;;;;;;5019858;28;20227;-71
2021/07/26 11:41:27;;;;;;;2.80;2.40;;;24.10;99.90;;;;;;5030959;28;20206;-70
2021/07/26 11:43:56;;;;;;;5.77;2.70;;;23.90;99.90;;;;;;5042595;28;20584;-70
2021/07/26 11:46:24;;;;;;;4.30;2.90;;;23.60;99.90;;;;;;5034745;28;20252;-69
2021/07/26 11:48:54;;;;;;;3.53;2.57;;;23.80;99.90;;;;;;5033516;28;20238;-68
2021/07/26 11:51:35;;;;;;;4.47;2.60;;;24.00;99.90;;;;;;5032499;28;20264;-69
2021/07/26 11:54:05;;;;;;;4.10;2.63;;;24.20;99.90;;;;;;5033479;28;20206;-69
2021/07/26 11:56:32;;;;;;;4.30;2.50;;;24.20;99.90;;;;;;5033059;28;20210;-70
2021/07/26 11:59:19;;;;;;;4.70;2.50;;;24.20;99.90;;;;;;5033073;28;20760;-64
2021/07/26 12:01:50;;;;;;;3.27;2.40;;;24.10;99.90;;;;;;5033464;28;20203;-66
2021/07/26 12:04:17;;;;;;;3.40;2.43;;;24.00;99.90;;;;;;5033069;28;20211;-66
2021/07/26 12:06:58;;;;;;;6.10;2.50;;;23.80;99.90;;;;;;5032953;28;20297;-67
2021/07/26 12:09:25;;;;;;;6.00;2.43;;;23.80;99.90;;;;;;5032782;28;20226;-67
2021/07/26 12:11:53;;;;;;;4.37;2.27;;;23.90;99.90;;;;;;5033246;28;20202;-68
2021/07/26 12:14:30;;;;;;;2.83;1.97;;;24.30;99.90;;;;;;5032947;28;20255;-68
2021/07/26 12:17:03;;;;;;;2.77;1.80;;;24.60;99.90;;;;;;5032981;28;20594;-65
2021/07/26 12:19:30;;;;;;;3.03;2.27;;;24.70;99.90;;;;;;5033059;28;20708;-68
2021/07/26 12:21:59;;;;;;;5.70;1.80;;;24.90;99.90;;;;;;5023370;28;20242;-68
2021/07/26 12:24:45;;;;;;;4.10;2.53;;;25.00;99.90;;;;;;5013017;28;20207;-69
2021/07/26 12:27:12;;;;;;;4.30;2.40;;;25.10;99.90;;;;;;5012923;28;20398;-68
2021/07/26 12:32:33;;;;;;;3.60;2.17;;;24.80;99.90;;;;;;5109516;27;20544;-67
2021/07/26 12:35:22;;;;;;;9.43;5.27;;;24.90;99.90;;;;;;5109162;28;20241;-65
2021/07/26 12:38:16;;;;;;;8.73;5.53;;;25.20;99.90;;;;;;5109243;28;20210;-65
2021/07/26 12:40:44;;;;;;;3.60;2.23;;;25.60;99.90;;;;;;5109212;28;20294;-65
2021/07/26 12:43:12;;;;;;;4.10;2.53;;;25.50;99.90;;;;;;5109451;28;20294;-66
2021/07/26 12:45:41;;;;;;;2.17;1.90;;;25.10;99.90;;;;;;5109013;28;20717;-66
2021/07/26 12:48:18;;;;;;;3.03;2.30;;;25.00;99.90;;;;;;5109071;28;20220;-65
2021/07/26 12:50:46;;;;;;;3.83;1.93;;;25.10;99.90;;;;;;5109099;28;20219;-65
2021/07/26 12:53:13;;;;;;;3.07;2.10;;;25.20;99.90;;;;;;5108760;28;20261;-65
2021/07/26 12:55:40;;;;;;;3.70;2.10;;;25.30;99.90;;;;;;5108839;28;20564;-65
2021/07/26 12:58:07;;;;;;;3.47;2.00;;;25.40;99.90;;;;;;5108951;28;20245;-65
2021/07/26 13:00:34;;;;;;;3.47;2.47;;;25.50;99.90;;;;;;5108974;28;20813;-65
2021/07/26 13:03:01;;;;;;;3.50;1.93;;;25.00;99.90;;;;;;5108764;28;20295;-64
2021/07/26 13:05:29;;;;;;;3.63;2.00;;;24.30;99.90;;;;;;5108451;28;20199;-66